createdAt,value
2022-07-26T00:03:16.807Z,18.31
2022-07-26T00:08:22.893Z,18.37
2022-07-26T00:13:30.293Z,18.38
2022-07-26T00:18:36.179Z,18.37
2022-07-26T00:23:42.049Z,18.37
2022-07-26T00:28:47.898Z,18.33
2022-07-26T00:33:53.740Z,18.35
2022-07-26T00:38:59.672Z,18.40
2022-07-26T00:44:06.027Z,18.45
2022-07-26T00:49:13.041Z,18.49
2022-07-26T00:54:19.513Z,18.50
2022-07-26T00:59:25.368Z,18.49
2022-07-26T01:04:31.216Z,18.46
2022-07-26T01:09:37.305Z,18.41
2022-07-26T01:14:45.518Z,18.36
2022-07-26T01:19:51.477Z,18.37
2022-07-26T01:24:57.320Z,18.35
2022-07-26T01:30:03.914Z,18.29
2022-07-26T01:35:10.861Z,18.16
2022-07-26T01:40:17.059Z,18.09
2022-07-26T01:45:22.814Z,17.97
2022-07-26T01:50:29.061Z,17.91
2022-07-26T01:55:34.773Z,17.87
2022-07-26T02:00:40.967Z,17.80
2022-07-26T02:05:46.838Z,17.69
2022-07-26T02:11:03.556Z,17.51
2022-07-26T02:16:14.151Z,17.37
2022-07-26T02:21:19.884Z,17.31
2022-07-26T02:26:25.803Z,17.21
2022-07-26T02:31:32.208Z,17.10
2022-07-26T02:36:38.455Z,16.99
2022-07-26T02:41:44.565Z,16.91
2022-07-26T02:46:50.584Z,16.85
2022-07-26T02:51:56.891Z,16.84
2022-07-26T02:57:02.870Z,16.83
2022-07-26T03:02:08.898Z,16.89
2022-07-26T03:07:14.830Z,16.97
2022-07-26T03:12:20.731Z,17.08
2022-07-26T03:17:26.906Z,17.17
2022-07-26T03:22:33.387Z,17.22
2022-07-26T03:27:39.290Z,17.29
2022-07-26T03:32:45.107Z,17.42
2022-07-26T03:37:51.337Z,17.56
2022-07-26T03:42:57.343Z,17.66
2022-07-26T03:48:04.074Z,17.77
2022-07-26T03:53:09.935Z,17.85
2022-07-26T03:58:17.162Z,18.00
2022-07-26T04:03:23.020Z,18.18
2022-07-26T04:08:28.822Z,18.35
2022-07-26T04:13:35.476Z,18.54
2022-07-26T04:18:42.594Z,18.78
2022-07-26T04:23:51.363Z,19.12
2022-07-26T04:28:59.191Z,19.54
2022-07-26T04:34:05.581Z,20.61
2022-07-26T04:39:11.683Z,21.49
2022-07-26T04:44:17.834Z,21.47
2022-07-26T04:49:24.179Z,21.59
2022-07-26T04:54:30.061Z,21.76
2022-07-26T04:59:35.953Z,22.13
2022-07-26T05:04:42.702Z,22.56
2022-07-26T05:09:48.596Z,25.00
2022-07-26T05:14:54.766Z,27.78
2022-07-26T05:20:03.177Z,29.72
2022-07-26T05:25:10.235Z,31.89
2022-07-26T05:30:16.336Z,33.70
2022-07-26T05:35:22.487Z,34.81
2022-07-26T05:40:28.452Z,35.97
2022-07-26T05:45:34.336Z,35.87
2022-07-26T05:50:40.632Z,34.79
2022-07-26T05:55:46.485Z,34.05
2022-07-26T06:00:52.521Z,34.36
2022-07-26T06:05:59.245Z,34.72
2022-07-26T06:11:05.819Z,34.39
2022-07-26T06:16:11.564Z,34.68
2022-07-26T06:21:18.277Z,35.31
2022-07-26T06:26:37.926Z,36.21
2022-07-26T06:31:44.539Z,37.02
2022-07-26T06:36:50.336Z,37.23
2022-07-26T06:41:56.262Z,37.23
2022-07-26T06:47:02.884Z,37.82
2022-07-26T06:52:08.789Z,38.85
2022-07-26T06:57:14.699Z,39.26
2022-07-26T07:02:21.527Z,40.06
2022-07-26T07:07:28.554Z,40.90
2022-07-26T07:12:35.167Z,41.88
2022-07-26T07:17:43.099Z,42.13
2022-07-26T07:22:49.039Z,41.73
2022-07-26T07:27:54.820Z,40.31
2022-07-26T07:33:00.876Z,38.99
2022-07-26T07:38:10.201Z,39.47
2022-07-26T07:43:16.171Z,39.48
2022-07-26T07:48:22.103Z,38.81
2022-07-26T07:53:28.029Z,37.73
2022-07-26T07:58:36.459Z,37.17
2022-07-26T08:03:42.689Z,37.04
2022-07-26T08:08:48.911Z,36.67
2022-07-26T08:13:57.739Z,35.93
2022-07-26T08:19:03.933Z,35.00
2022-07-26T08:24:10.920Z,33.77
2022-07-26T08:29:17.065Z,32.74
2022-07-26T08:34:23.048Z,31.91
2022-07-26T08:39:28.836Z,31.48
2022-07-26T08:44:35.747Z,31.32
2022-07-26T08:49:42.156Z,31.21
2022-07-26T08:54:49.883Z,31.41
2022-07-26T09:00:15.980Z,31.99
2022-07-26T09:05:26.555Z,32.97
2022-07-26T09:10:39.070Z,33.97
2022-07-26T09:15:45.498Z,34.26
2022-07-26T09:20:51.644Z,34.00
2022-07-26T09:26:06.397Z,33.86
2022-07-26T09:31:12.783Z,34.28
2022-07-26T09:36:19.611Z,35.00
2022-07-26T09:41:28.141Z,35.37
2022-07-26T09:46:35.339Z,35.48
2022-07-26T09:51:43.983Z,36.20
2022-07-26T09:56:52.391Z,36.72
2022-07-26T10:01:59.743Z,36.76
2022-07-26T10:07:06.315Z,36.27
2022-07-26T10:12:16.025Z,35.94
2022-07-26T10:17:49.576Z,36.29
2022-07-26T10:22:55.931Z,36.22
2022-07-26T10:28:02.071Z,35.91
2022-07-26T10:33:19.678Z,35.57
2022-07-26T10:38:27.370Z,35.35
2022-07-26T10:43:42.565Z,35.05
2022-07-26T10:48:59.425Z,34.62
2022-07-26T10:54:07.579Z,34.40
2022-07-26T10:59:13.809Z,34.00
2022-07-26T11:04:21.292Z,33.79
2022-07-26T11:09:35.169Z,33.84
2022-07-26T11:14:45.055Z,34.07
2022-07-26T11:19:54.327Z,33.95
2022-07-26T11:25:01.234Z,33.72
2022-07-26T11:30:09.638Z,34.18
2022-07-26T11:35:15.775Z,33.97
2022-07-26T11:40:46.024Z,33.29
2022-07-26T11:45:54.956Z,32.67
2022-07-26T11:51:12.896Z,32.44
2022-07-26T11:56:20.693Z,31.53
2022-07-26T12:01:28.596Z,30.48
2022-07-26T12:06:40.957Z,29.89
2022-07-26T12:11:48.154Z,29.49
2022-07-26T12:16:54.967Z,29.00
2022-07-26T12:22:12.375Z,28.52
2022-07-26T12:27:21.323Z,27.80
2022-07-26T12:32:34.237Z,27.02
2022-07-26T12:37:54.006Z,26.32
2022-07-26T12:43:02.785Z,25.63
2022-07-26T12:48:11.994Z,24.83
2022-07-26T12:53:18.226Z,24.03
2022-07-26T12:58:24.111Z,23.47
2022-07-26T13:03:30.031Z,23.05
2022-07-26T13:08:36.029Z,22.68
2022-07-26T13:13:42.214Z,22.41
2022-07-26T13:18:48.258Z,22.13
2022-07-26T13:23:54.806Z,21.82
2022-07-26T13:29:01.854Z,21.49
2022-07-26T13:34:08.322Z,21.27
2022-07-26T13:39:15.111Z,21.18
2022-07-26T13:44:21.016Z,21.05
2022-07-26T13:49:27.122Z,20.99
2022-07-26T13:54:34.761Z,21.00
2022-07-26T13:59:40.906Z,21.06
2022-07-26T14:04:46.798Z,21.16
2022-07-26T14:09:52.594Z,21.29
2022-07-26T14:14:58.635Z,21.46
2022-07-26T14:20:06.320Z,21.65
2022-07-26T14:25:12.689Z,21.82
2022-07-26T14:30:19.078Z,21.95
2022-07-26T14:35:25.167Z,22.13
2022-07-26T14:40:31.072Z,22.30
2022-07-26T14:45:37.109Z,22.38
2022-07-26T14:51:08.170Z,22.39
2022-07-26T14:56:11.172Z,22.17
2022-07-26T15:01:17.893Z,22.06
2022-07-26T15:06:23.830Z,22.03
2022-07-26T15:11:29.940Z,22.02
2022-07-26T15:16:36.078Z,21.94
2022-07-26T15:21:42.117Z,21.89
2022-07-26T15:26:48.075Z,21.94
2022-07-26T15:31:54.022Z,21.86
2022-07-26T15:37:01.016Z,21.80
2022-07-26T15:42:09.253Z,21.75
2022-07-26T15:47:36.912Z,21.72
2022-07-26T15:52:44.706Z,21.63
2022-07-26T15:57:50.477Z,21.56
2022-07-26T16:02:57.401Z,21.50
2022-07-26T16:08:03.371Z,21.43
2022-07-26T16:13:09.311Z,21.33
2022-07-26T16:18:15.503Z,21.17
2022-07-26T16:23:21.451Z,21.05
2022-07-26T16:28:27.172Z,20.93
2022-07-26T16:33:33.123Z,20.83
2022-07-26T16:38:39.116Z,20.75
2022-07-26T16:43:45.065Z,20.63
2022-07-26T16:48:51.005Z,20.45
2022-07-26T16:53:56.808Z,20.29
2022-07-26T16:59:04.681Z,20.19
2022-07-26T17:04:12.606Z,20.04
2022-07-26T17:09:18.863Z,19.93
2022-07-26T17:14:24.935Z,19.85
2022-07-26T17:19:30.739Z,19.76
2022-07-26T17:24:36.449Z,19.70
2022-07-26T17:29:42.809Z,19.66
2022-07-26T17:34:48.667Z,19.65
2022-07-26T17:39:54.622Z,19.62
2022-07-26T17:45:03.551Z,19.57
2022-07-26T17:55:36.731Z,19.54
2022-07-26T18:00:42.839Z,19.50
2022-07-26T18:05:48.790Z,19.48
2022-07-26T18:10:54.775Z,19.44
2022-07-26T18:16:05.525Z,19.43
2022-07-26T18:21:12.180Z,19.40
2022-07-26T18:26:18.115Z,19.40
2022-07-26T18:31:24.282Z,19.39
2022-07-26T18:36:30.488Z,19.37
2022-07-26T18:41:36.235Z,19.35
2022-07-26T18:46:52.294Z,19.33
2022-07-26T18:52:00.720Z,19.30
2022-07-26T18:57:11.945Z,19.25
2022-07-26T19:02:17.687Z,19.20
2022-07-26T19:07:23.810Z,19.19
2022-07-26T19:12:30.014Z,19.17
2022-07-26T19:17:35.908Z,19.13
2022-07-26T19:22:44.091Z,19.09
2022-07-26T19:27:50.036Z,19.05
2022-07-26T19:32:55.931Z,19.04
2022-07-26T19:38:02.369Z,18.98
2022-07-26T19:43:08.215Z,18.89
2022-07-26T19:48:14.483Z,18.82
2022-07-26T19:53:20.647Z,18.73
2022-07-26T19:58:27.018Z,18.59
2022-07-26T20:03:33.898Z,18.45
2022-07-26T20:08:40.424Z,18.37
2022-07-26T20:13:46.315Z,18.34
2022-07-26T20:18:52.148Z,18.23
2022-07-26T20:23:58.525Z,18.08
2022-07-26T20:29:04.770Z,18.00
2022-07-26T20:34:10.860Z,17.93
2022-07-26T20:39:16.936Z,17.83
2022-07-26T20:44:26.322Z,17.71
2022-07-26T20:49:34.013Z,17.63
2022-07-26T20:54:40.037Z,17.56
2022-07-26T20:59:46.408Z,17.49
2022-07-26T21:04:52.410Z,17.47
2022-07-26T21:09:58.360Z,17.43
2022-07-26T21:15:04.626Z,17.43
2022-07-26T21:20:11.221Z,17.41
2022-07-26T21:25:17.330Z,17.39
2022-07-26T21:30:23.355Z,17.37
2022-07-26T21:35:29.183Z,17.42
2022-07-26T21:40:35.705Z,17.39
2022-07-26T21:45:41.675Z,17.31
2022-07-26T21:50:47.528Z,17.32
2022-07-26T21:55:53.407Z,17.29
2022-07-26T22:01:06.091Z,17.21
2022-07-26T22:06:13.075Z,17.15
2022-07-26T22:11:19.153Z,17.13
2022-07-26T22:16:26.049Z,17.22
2022-07-26T22:21:32.157Z,17.27
2022-07-26T22:26:37.961Z,17.18
2022-07-26T22:31:43.954Z,17.12
2022-07-26T22:36:49.773Z,17.08
2022-07-26T22:42:14.335Z,17.06
2022-07-26T22:47:20.495Z,17.01
2022-07-26T22:52:26.519Z,17.02
2022-07-26T22:57:32.273Z,17.05
2022-07-26T23:02:39.423Z,17.07
2022-07-26T23:07:47.882Z,17.03
2022-07-26T23:12:55.420Z,17.02
2022-07-26T23:18:01.551Z,17.00
2022-07-26T23:23:07.388Z,17.04
2022-07-26T23:28:35.173Z,17.02
2022-07-26T23:33:51.415Z,17.00
2022-07-26T23:39:01.228Z,16.97
2022-07-26T23:44:07.038Z,17.08
2022-07-26T23:49:13.306Z,17.14
2022-07-26T23:54:19.428Z,17.10
2022-07-26T23:59:25.505Z,17.04
